Arviat Airport
CYEK : now visible

Airfield :











YOU CAN JOIN US ON...

 
LOGIN :

Register | Disclaimer

   EN    FR    IT 

 









Legend :    VFR   Marginal VFR   IFR   Intensive IFR   Very Intensive IFR
Visi :
Ceiling :
>= 8 km
>= 3000ft
5 to 8 km
1000 to 3000 ft
1500m to 5 km
500 to 1000 ft
800 to 1500m
200 to 500 ft
< 800m
< 200 ft
Symbols :   Thunderstorms  Fog  Heavy snow  Heavy precipitations  Wind > 20 kt







- Airport Elevation : 32 ft
- IATA code : YEK


CYEK - Arviat

CURRENT METAR :
  • 230500Z AUTO 35012G17KT 9SM CLR 15/14 A2989 RMK SLP124 DENSITY ALT 100FT

EXPIRED METARs :
  • 230441Z AUTO 36010KT 9SM FEW090 14/14 A2988 RMK WSHFT AT 0427Z SLP122
  • 230400Z AUTO 29004KT 9SM CLR 11/10 A2988 RMK SLP122
  • 230300Z AUTO 20008KT 9SM BKN110 11/09 A2988 RMK SLP119

TAF TAF CYEK
Valid from the 23 at 06:00 until the 23 at 18:00 UTC


230538Z 2306/2318 35015KT P6SM FEW020 SCT100
BECMG 2315/2317 VRB03KT RMK FCST BASED ON AUTO OBS. NXT FCST BY 231200Z
CZEG FIR / North America



MET'MAP, your aeronautical weather chart ! - Copyright ORBIFLY December 2007 - Disclaimer

ORBIFLY MET'MAP TEAM :

Programming & Development : Alexandra Zaïnal
Concept & Development : Baudouin d'Aumeries
Co-Development & Prog : Marc-Olivier Méhu
Technical & hardware support : Manuel Goepfert

Contact : metmap@orbifly.com




SOURCES & CREDITS :

   NOAA       Earth
Advisory